Cobbtown, Georgia
Current Conditions -  °F | °C
As of 3:15 PM on Sunday 21 Dec 2014 (Local Time) from KVDI Reporting Station
Overcast Overcast  
Wind Chill: 50°   Ceiling: 800
Heat Index: 50°   Visibility: 7mi
Dew Point: 50°   Wind: 8mph
Humidity: 100%   Direction: 60°ENE
Pressure: 30.1"   Gusts: NA
Location:  32.28°N, 82.14°W
Report Text: KVDI 212015Z AUTO 06007KT 7SM BKN008 OVC011 10/10 A3010 RMK AO2
Loading
Personal Weather Stations






























Interactive Weather Map New forecast layout! Learn more

10-Day Weather Forecast

Advertisements
Track Severe Weather on mobile